Time;durP1;ratioP1;P1;durP2;ratioP2;P2;SDS_P1;SDS_P2;PMS_P1;PMS_P2;Temp;Humidity;BMP_temperature;BMP_pressure;BME280_temperature;BME280_humidity;BME280_pressure;Samples;Min_cycle;Max_cycle;Signal;HPM_P1;HPM_P2
2022/05/08 00:04:06;;;;;;;9.55;2.10;;;15.80;81.80;;;;;;10535421;28;20032;-65
2022/05/08 00:09:07;;;;;;;7.65;2.28;;;15.80;81.70;;;;;;10536854;28;20036;-75
2022/05/08 00:14:08;;;;;;;6.13;2.13;;;15.70;81.70;;;;;;10536547;28;20516;-74
2022/05/08 00:19:09;;;;;;;5.72;1.92;;;15.70;81.60;;;;;;10536685;28;20036;-64
2022/05/08 00:24:10;;;;;;;4.75;1.90;;;15.70;81.60;;;;;;10536604;28;20031;-74
2022/05/08 00:29:11;;;;;;;7.15;2.33;;;15.60;81.50;;;;;;10535941;28;20140;-74
2022/05/08 00:34:11;;;;;;;6.80;2.08;;;15.70;81.50;;;;;;10535852;28;20020;-71
2022/05/08 00:39:13;;;;;;;10.07;2.03;;;15.60;81.40;;;;;;10535763;28;20139;-73
2022/05/08 00:44:14;;;;;;;5.13;1.92;;;15.50;81.40;;;;;;10535772;28;20030;-67
2022/05/08 00:49:15;;;;;;;7.13;1.90;;;15.50;81.40;;;;;;10535278;28;20028;-73
2022/05/08 00:54:17;;;;;;;5.55;1.75;;;15.50;81.40;;;;;;10535195;28;20058;-73
2022/05/08 00:59:19;;;;;;;6.32;1.83;;;15.40;81.20;;;;;;10535459;28;20089;-72
2022/05/08 01:04:19;;;;;;;5.55;2.00;;;15.40;81.20;;;;;;10538834;28;20036;-70
2022/05/08 01:09:20;;;;;;;8.77;2.25;;;15.40;81.20;;;;;;10542951;28;20046;-72
2022/05/08 01:14:22;;;;;;;7.32;2.05;;;15.30;81.10;;;;;;10542404;28;20551;-67
2022/05/08 01:19:22;;;;;;;7.97;1.73;;;15.30;81.10;;;;;;10542228;28;20039;-73
2022/05/08 01:24:24;;;;;;;8.13;2.13;;;15.30;81.00;;;;;;10542404;28;20029;-69
2022/05/08 01:29:24;;;;;;;8.20;2.10;;;15.20;80.90;;;;;;10542150;28;20023;-73
2022/05/08 01:34:25;;;;;;;7.50;1.75;;;15.20;80.90;;;;;;10541659;28;20024;-69
2022/05/08 01:39:26;;;;;;;6.47;2.00;;;15.10;81.40;;;;;;10541375;28;20036;-72
2022/05/08 01:44:26;;;;;;;8.02;1.70;;;15.10;80.70;;;;;;10541545;28;20380;-72
2022/05/08 01:49:27;;;;;;;7.10;1.85;;;15.10;80.70;;;;;;10541098;28;20055;-73
2022/05/08 01:54:28;;;;;;;7.15;2.58;;;15.00;80.60;;;;;;10540710;28;20044;-71
2022/05/08 01:59:28;;;;;;;5.57;1.50;;;15.00;80.60;;;;;;10540721;28;20040;-72
2022/05/08 02:04:29;;;;;;;5.18;1.65;;;15.00;80.60;;;;;;10540375;28;20103;-66
2022/05/08 02:09:30;;;;;;;7.05;1.80;;;14.90;80.50;;;;;;10540596;28;20119;-72
2022/05/08 02:14:31;;;;;;;5.47;1.48;;;14.90;80.40;;;;;;10540261;28;20365;-71
2022/05/08 02:19:32;;;;;;;4.57;1.52;;;14.90;80.40;;;;;;10538775;28;20032;-71
2022/05/08 02:24:32;;;;;;;6.70;1.80;;;14.90;80.40;;;;;;10539648;28;20064;-72
2022/05/08 02:29:33;;;;;;;3.88;1.25;;;14.80;80.30;;;;;;10539716;28;20574;-69
2022/05/08 02:34:34;;;;;;;5.35;1.70;;;14.80;80.20;;;;;;10539634;28;20033;-73
2022/05/08 02:39:34;;;;;;;9.05;2.20;;;14.70;80.10;;;;;;10538985;28;20126;-73
2022/05/08 02:44:35;;;;;;;5.75;1.90;;;14.70;80.10;;;;;;10538778;28;20070;-73
2022/05/08 02:49:36;;;;;;;6.03;1.77;;;14.70;80.10;;;;;;10538628;28;20111;-72
2022/05/08 02:54:36;;;;;;;6.18;2.50;;;14.60;80.00;;;;;;10538571;28;20143;-73
2022/05/08 02:59:37;;;;;;;5.90;1.65;;;14.60;80.50;;;;;;10538345;28;20068;-72
2022/05/08 03:04:39;;;;;;;5.55;1.55;;;14.60;79.90;;;;;;10538436;28;20024;-73
2022/05/08 03:09:39;;;;;;;9.95;1.85;;;14.50;79.80;;;;;;10537877;28;20031;-68
2022/05/08 03:14:40;;;;;;;7.20;1.63;;;14.60;79.80;;;;;;10537647;28;20114;-71
2022/05/08 03:19:41;;;;;;;5.72;1.70;;;14.50;79.70;;;;;;10537441;28;20031;-72
2022/05/08 03:24:42;;;;;;;6.65;2.20;;;14.50;79.70;;;;;;10537397;28;20637;-74
2022/05/08 03:29:42;;;;;;;7.18;1.88;;;14.40;79.50;;;;;;10536982;28;20024;-72
2022/05/08 03:34:43;;;;;;;5.75;2.03;;;14.40;79.50;;;;;;10537144;28;20067;-71
2022/05/08 03:39:44;;;;;;;9.07;1.92;;;14.40;79.40;;;;;;10536866;28;20482;-71
2022/05/08 03:44:45;;;;;;;5.22;1.88;;;14.30;79.30;;;;;;10536628;28;20032;-72
2022/05/08 03:49:46;;;;;;;8.35;2.00;;;14.30;79.30;;;;;;10536690;28;20032;-74
2022/05/08 03:54:46;;;;;;;6.05;1.95;;;14.30;79.20;;;;;;10536300;28;20131;-72
2022/05/08 03:59:47;;;;;;;6.55;1.77;;;14.30;79.20;;;;;;10536226;28;20050;-73
2022/05/08 04:04:48;;;;;;;9.20;2.22;;;14.20;79.10;;;;;;10536224;28;20043;-73
2022/05/08 04:09:49;;;;;;;5.95;2.13;;;14.20;79.10;;;;;;10536280;28;20058;-73
2022/05/08 04:14:49;;;;;;;5.28;1.92;;;14.20;79.00;;;;;;10536484;28;20016;-67
2022/05/08 04:19:50;;;;;;;7.63;1.90;;;14.10;78.90;;;;;;10536289;28;20462;-72
2022/05/08 04:24:51;;;;;;;5.57;2.38;;;14.10;78.90;;;;;;10536218;28;20070;-74
2022/05/08 04:29:52;;;;;;;8.63;2.00;;;14.10;78.80;;;;;;10535858;28;20024;-74
2022/05/08 04:34:52;;;;;;;5.60;2.00;;;14.10;78.80;;;;;;10535818;28;20061;-71
2022/05/08 04:39:53;;;;;;;5.50;1.80;;;14.10;78.80;;;;;;10540686;28;20032;-73
2022/05/08 04:44:54;;;;;;;4.93;1.60;;;14.00;78.70;;;;;;10543710;28;20047;-73
2022/05/08 04:49:55;;;;;;;6.50;2.45;;;14.00;78.70;;;;;;10542287;28;20020;-70
2022/05/08 04:54:56;;;;;;;5.75;1.70;;;14.00;78.70;;;;;;10543351;28;20040;-70
2022/05/08 04:59:57;;;;;;;7.03;2.08;;;14.00;78.60;;;;;;10543231;28;20141;-72
2022/05/08 05:05:00;;;;;;;4.13;1.70;;;14.00;78.70;;;;;;10543070;28;20028;-73
2022/05/08 05:10:02;;;;;;;6.82;2.08;;;13.90;79.20;;;;;;10542776;28;20036;-72
2022/05/08 05:15:04;;;;;;;10.02;2.60;;;13.90;78.50;;;;;;10543005;28;20081;-73
2022/05/08 05:20:05;;;;;;;8.95;1.98;;;13.90;78.50;;;;;;10542455;28;20085;-73
2022/05/08 05:25:07;;;;;;;4.55;2.13;;;13.90;78.40;;;;;;10542753;28;20035;-71
2022/05/08 05:30:09;;;;;;;6.13;1.90;;;13.90;78.40;;;;;;10542548;28;20059;-73
2022/05/08 05:35:10;;;;;;;5.00;1.70;;;13.90;78.40;;;;;;10550645;28;20028;-67
2022/05/08 05:40:11;;;;;;;4.97;1.55;;;13.90;78.30;;;;;;10550874;28;20476;-69
2022/05/08 05:45:12;;;;;;;5.78;1.98;;;13.90;78.30;;;;;;10543713;28;20182;-73
2022/05/08 05:50:12;;;;;;;6.03;1.83;;;13.90;78.30;;;;;;10541058;28;20024;-73
2022/05/08 05:55:13;;;;;;;9.80;1.88;;;13.90;78.20;;;;;;10541042;28;20048;-71
2022/05/08 06:00:16;;;;;;;6.38;1.92;;;13.90;78.20;;;;;;10541134;28;20027;-70
2022/05/08 06:05:17;;;;;;;4.38;1.63;;;13.90;78.20;;;;;;10541060;28;20028;-66
2022/05/08 06:10:17;;;;;;;6.72;2.15;;;13.90;78.10;;;;;;10540360;28;20519;-71
2022/05/08 06:15:18;;;;;;;6.90;1.70;;;13.90;78.10;;;;;;10540343;28;20024;-66
2022/05/08 06:20:19;;;;;;;4.38;1.60;;;13.90;78.10;;;;;;10539914;28;20035;-74
2022/05/08 06:25:20;;;;;;;5.68;1.50;;;13.90;78.00;;;;;;10540030;28;20031;-74
2022/05/08 06:30:21;;;;;;;4.13;1.55;;;13.90;78.00;;;;;;10539448;28;20044;-73
2022/05/08 06:35:21;;;;;;;2.70;1.38;;;13.90;77.90;;;;;;10539141;28;20140;-73
2022/05/08 06:40:22;;;;;;;5.72;1.30;;;13.90;77.90;;;;;;10539388;28;20139;-70
2022/05/08 06:45:24;;;;;;;4.55;1.55;;;13.90;77.90;;;;;;10538655;28;20180;-67
2022/05/08 06:50:25;;;;;;;3.63;1.50;;;14.00;77.80;;;;;;10538473;28;20139;-72
2022/05/08 06:55:26;;;;;;;5.15;1.63;;;14.00;77.80;;;;;;10538617;28;20127;-73
2022/05/08 07:05:47;;;;;;;4.47;1.30;;;14.00;78.40;;;;;;10538444;28;20089;-67
2022/05/08 07:10:47;;;;;;;5.10;1.80;;;14.00;77.80;;;;;;10537767;28;20035;-66
2022/05/08 07:15:48;;;;;;;3.90;1.92;;;14.00;77.70;;;;;;10537771;28;20453;-70
2022/05/08 07:20:49;;;;;;;2.65;1.20;;;14.10;77.80;;;;;;10537716;28;20119;-71
2022/05/08 07:25:49;;;;;;;5.40;1.40;;;14.10;77.80;;;;;;10537478;28;20024;-71
2022/05/08 07:30:50;;;;;;;4.93;1.35;;;14.10;77.80;;;;;;10537389;28;20468;-70
2022/05/08 07:41:14;;;;;;;5.45;1.08;;;14.20;77.80;;;;;;10536686;28;20028;-73
2022/05/08 07:46:15;;;;;;;2.45;1.30;;;14.20;77.80;;;;;;10536640;28;20404;-68
2022/05/08 07:51:16;;;;;;;2.40;1.20;;;14.20;77.80;;;;;;10536400;28;20032;-68
2022/05/08 07:56:17;;;;;;;4.43;1.27;;;14.20;77.80;;;;;;10536030;28;20435;-68
2022/05/08 08:01:17;;;;;;;3.13;1.20;;;14.20;77.70;;;;;;10536706;28;20036;-68
2022/05/08 08:06:18;;;;;;;3.65;1.30;;;14.20;77.60;;;;;;10536168;28;20024;-66
2022/05/08 08:11:20;;;;;;;4.25;1.08;;;14.30;77.60;;;;;;10536717;28;20115;-66
2022/05/08 08:16:21;;;;;;;2.63;1.23;;;14.40;77.50;;;;;;10544548;28;20079;-71
2022/05/08 08:21:22;;;;;;;3.05;0.95;;;14.40;77.40;;;;;;10547049;28;20130;-79
2022/05/08 08:26:23;;;;;;;2.03;1.15;;;14.50;77.40;;;;;;10545478;28;20024;-74
2022/05/08 08:31:24;;;;;;;3.25;1.30;;;14.50;77.20;;;;;;10544153;28;20045;-73
2022/05/08 08:36:24;;;;;;;2.63;1.15;;;14.60;77.20;;;;;;10543519;28;20131;-75
2022/05/08 08:41:30;;;;;;;3.13;1.20;;;14.60;77.10;;;;;;10544002;28;20081;-71
2022/05/08 08:51:52;;;;;;;2.08;1.05;;;14.70;77.10;;;;;;10543673;28;20028;-79
2022/05/08 08:56:53;;;;;;;2.67;1.00;;;14.70;77.10;;;;;;10546073;28;20048;-77
2022/05/08 09:01:54;;;;;;;2.47;1.30;;;14.70;77.20;;;;;;10543369;28;20016;-78
2022/05/08 09:06:54;;;;;;;3.67;1.17;;;14.70;77.10;;;;;;10544627;28;20054;-78
2022/05/08 09:11:56;;;;;;;1.52;0.95;;;14.70;77.20;;;;;;10544580;28;20030;-67
2022/05/08 09:16:58;;;;;;;4.07;1.20;;;14.70;77.20;;;;;;10542115;28;20086;-66
2022/05/08 09:22:00;;;;;;;1.90;1.10;;;14.80;77.20;;;;;;10542073;28;20124;-66
2022/05/08 09:27:13;;;;;;;2.08;1.00;;;14.80;77.10;;;;;;10541005;28;20111;-62
2022/05/08 09:32:38;;;;;;;2.53;1.10;;;14.80;76.90;;;;;;10541926;28;20453;-68
2022/05/08 09:37:53;;;;;;;3.20;1.15;;;14.80;77.50;;;;;;10541392;28;20032;-65
2022/05/08 09:42:54;;;;;;;2.70;1.00;;;14.90;77.00;;;;;;10540720;28;20027;-71
2022/05/08 09:47:57;;;;;;;2.40;0.95;;;14.90;77.20;;;;;;10539871;28;20520;-68
2022/05/08 09:52:58;;;;;;;4.63;1.25;;;14.90;77.60;;;;;;10539455;28;20036;-71
2022/05/08 09:58:00;;;;;;;4.15;1.27;;;15.00;77.40;;;;;;10539062;28;20054;-75
2022/05/08 10:03:02;;;;;;;2.97;1.15;;;15.00;77.50;;;;;;10538071;28;20035;-71
2022/05/08 10:08:05;;;;;;;4.53;1.30;;;15.00;77.30;;;;;;10538509;28;20054;-66
2022/05/08 10:18:28;;;;;;;4.05;1.40;;;15.10;77.40;;;;;;10538585;28;20131;-68
2022/05/08 10:23:39;;;;;;;2.15;1.27;;;15.20;77.80;;;;;;10538603;28;20024;-65
2022/05/08 10:28:58;;;;;;;1.75;1.00;;;15.20;77.70;;;;;;10538053;28;20051;-64
2022/05/08 10:34:05;;;;;;;2.00;0.98;;;15.20;77.20;;;;;;10537952;28;20032;-68
2022/05/08 10:39:42;;;;;;;1.15;0.95;;;15.30;77.20;;;;;;10536543;28;20524;-70
2022/05/08 10:44:43;;;;;;;3.53;1.20;;;15.40;77.50;;;;;;10537423;28;20454;-68
2022/05/08 10:49:45;;;;;;;6.68;2.15;;;15.50;77.50;;;;;;10537391;28;20508;-68
2022/05/08 10:54:59;;;;;;;3.45;1.10;;;15.40;77.40;;;;;;10537097;28;20127;-65
2022/05/08 11:00:03;;;;;;;4.50;1.33;;;15.50;77.50;;;;;;10536761;28;20035;-67
2022/05/08 11:05:04;;;;;;;2.00;1.20;;;15.60;77.30;;;;;;10536848;28;20085;-71
2022/05/08 11:10:32;;;;;;;2.28;0.93;;;15.60;77.00;;;;;;10536370;28;20028;-71
2022/05/08 11:15:59;;;;;;;4.75;1.30;;;15.70;76.60;;;;;;10531000;28;20388;-71
2022/05/08 11:21:02;;;;;;;4.72;1.17;;;15.80;76.30;;;;;;10533904;28;20449;-69
2022/05/08 11:26:09;;;;;;;3.55;1.13;;;15.80;76.10;;;;;;10536917;28;20472;-71
2022/05/08 11:31:15;;;;;;;3.85;1.17;;;15.90;75.90;;;;;;10538752;28;20480;-72
2022/05/08 11:36:26;;;;;;;2.28;1.17;;;15.90;75.60;;;;;;10538934;28;20097;-73
2022/05/08 11:41:32;;;;;;;3.25;1.50;;;16.00;75.50;;;;;;10535504;28;20380;-72
2022/05/08 11:46:41;;;;;;;3.45;1.00;;;16.10;75.50;;;;;;10535280;28;20039;-72
2022/05/08 11:51:48;;;;;;;4.65;1.55;;;16.10;75.20;;;;;;10536692;28;20024;-68
2022/05/08 11:56:51;;;;;;;6.97;1.30;;;16.20;72.30;;;;;;10536404;28;20048;-69
2022/05/08 12:01:54;;;;;;;5.78;1.45;;;16.00;70.70;;;;;;10536921;28;20051;-74
2022/05/08 12:06:59;;;;;;;4.43;1.42;;;16.00;71.30;;;;;;10536812;28;20036;-78
2022/05/08 12:12:29;;;;;;;4.88;1.60;;;16.20;71.20;;;;;;10536273;28;20028;-71
2022/05/08 12:17:49;;;;;;;3.58;1.30;;;16.30;70.70;;;;;;10535691;28;20063;-73
2022/05/08 12:23:11;;;;;;;4.20;1.20;;;16.40;70.70;;;;;;10528581;28;20028;-75
2022/05/08 12:28:13;;;;;;;4.00;1.30;;;16.50;70.90;;;;;;10535844;28;20066;-73
2022/05/08 12:33:13;;;;;;;4.32;1.33;;;16.60;71.40;;;;;;10535954;28;20513;-74
2022/05/08 12:38:14;;;;;;;2.78;1.30;;;16.70;71.50;;;;;;10535650;28;20044;-69
2022/05/08 12:43:14;;;;;;;4.78;1.60;;;16.80;71.60;;;;;;10535309;28;20052;-69
2022/05/08 12:48:19;;;;;;;8.43;1.15;;;16.80;71.60;;;;;;10535419;28;20031;-74
2022/05/08 12:53:20;;;;;;;2.80;1.60;;;16.90;71.70;;;;;;10535349;28;20028;-74
2022/05/08 13:03:40;;;;;;;6.45;1.23;;;17.00;71.80;;;;;;10542841;28;20029;-73
2022/05/08 13:08:41;;;;;;;2.97;1.35;;;17.10;72.00;;;;;;10542725;28;20483;-69
2022/05/08 13:13:41;;;;;;;5.07;1.65;;;17.10;72.10;;;;;;10542671;28;20101;-73
2022/05/08 13:18:42;;;;;;;3.38;1.20;;;17.20;72.10;;;;;;10542317;28;20123;-75
2022/05/08 13:23:43;;;;;;;2.92;1.20;;;17.30;72.00;;;;;;10542052;28;20020;-68
2022/05/08 13:28:44;;;;;;;5.20;1.40;;;17.40;72.00;;;;;;10540769;28;20032;-74
2022/05/08 13:33:45;;;;;;;2.25;1.00;;;17.50;71.90;;;;;;10541921;28;20382;-73
2022/05/08 13:38:46;;;;;;;2.45;1.23;;;17.60;72.00;;;;;;10541568;28;20089;-73
2022/05/08 13:43:46;;;;;;;2.80;1.10;;;17.70;72.00;;;;;;10541386;28;20430;-73
2022/05/08 13:48:47;;;;;;;3.60;1.17;;;17.80;72.10;;;;;;10541150;28;20062;-72
2022/05/08 13:53:48;;;;;;;2.80;1.08;;;17.90;72.10;;;;;;10541022;28;20027;-74
2022/05/08 13:58:50;;;;;;;2.35;1.00;;;18.00;72.10;;;;;;10540246;28;20079;-73
2022/05/08 14:03:51;;;;;;;3.88;1.35;;;18.20;72.10;;;;;;10540551;28;20506;-70
2022/05/08 14:08:51;;;;;;;3.28;1.75;;;18.30;72.10;;;;;;10540509;28;20032;-73
2022/05/08 14:13:53;;;;;;;4.57;1.00;;;18.40;72.10;;;;;;10540059;28;20016;-72
2022/05/08 14:18:53;;;;;;;2.53;1.30;;;18.50;72.10;;;;;;10539800;28;20136;-73
2022/05/08 14:23:54;;;;;;;4.53;1.00;;;18.60;72.10;;;;;;10539768;28;20107;-74
2022/05/08 14:28:56;;;;;;;2.75;1.08;;;18.80;72.20;;;;;;10539911;28;20085;-66
2022/05/08 14:39:16;;;;;;;3.95;1.20;;;18.90;72.10;;;;;;10539109;28;20040;-69
2022/05/08 14:44:16;;;;;;;4.97;1.10;;;19.00;72.00;;;;;;10538936;28;20115;-74
2022/05/08 14:49:17;;;;;;;4.78;1.67;;;19.20;71.90;;;;;;10538745;28;20093;-71
2022/05/08 14:54:18;;;;;;;2.53;0.98;;;19.30;71.70;;;;;;10538110;28;20111;-75
2022/05/08 14:59:19;;;;;;;2.33;1.08;;;19.30;71.50;;;;;;10537601;28;20056;-67
2022/05/08 15:04:19;;;;;;;5.07;1.50;;;19.50;72.00;;;;;;10537779;28;20481;-72
2022/05/08 15:09:22;;;;;;;3.67;1.23;;;19.60;71.20;;;;;;10537827;28;20024;-62
2022/05/08 15:14:25;;;;;;;2.08;0.93;;;19.70;70.90;;;;;;10537587;28;20020;-64
2022/05/08 15:19:26;;;;;;;5.72;1.25;;;19.80;70.90;;;;;;10537436;28;20036;-67
2022/05/08 15:24:27;;;;;;;5.47;1.70;;;19.80;70.90;;;;;;10536494;28;20110;-68
2022/05/08 15:29:27;;;;;;;3.20;1.30;;;19.90;70.70;;;;;;10536788;28;20123;-70
2022/05/08 15:34:32;;;;;;;4.57;1.20;;;20.00;70.20;;;;;;10537210;28;20036;-75
2022/05/08 15:39:34;;;;;;;1.83;1.20;;;20.10;70.40;;;;;;10536104;28;20035;-70
2022/05/08 15:44:35;;;;;;;3.88;2.05;;;20.20;70.50;;;;;;10536388;28;20133;-63
2022/05/08 15:49:35;;;;;;;3.47;1.67;;;20.30;70.30;;;;;;10536474;28;20102;-71
2022/05/08 15:54:36;;;;;;;4.68;1.83;;;20.30;70.10;;;;;;10536345;28;20032;-69
2022/05/08 15:59:37;;;;;;;4.80;2.15;;;20.30;70.10;;;;;;10535825;28;20062;-67
2022/05/08 16:04:37;;;;;;;3.60;1.33;;;20.30;69.70;;;;;;10535801;28;20077;-67
2022/05/08 16:09:39;;;;;;;4.07;1.60;;;20.20;69.80;;;;;;10535745;28;20021;-73
2022/05/08 16:25:18;;;;;;;4.22;1.55;;;19.90;70.70;;;;;;10535502;28;20017;-81
2022/05/08 16:30:19;;;;;;;3.17;1.45;;;19.80;71.40;;;;;;10535544;28;20031;-72
2022/05/08 16:35:20;;;;;;;7.82;1.80;;;19.70;71.80;;;;;;10540689;28;20387;-72
2022/05/08 16:40:23;;;;;;;5.80;1.45;;;19.60;71.40;;;;;;10543894;28;20032;-74
2022/05/08 16:45:26;;;;;;;5.25;1.55;;;19.50;71.60;;;;;;10543855;28;20031;-73
2022/05/08 16:50:26;;;;;;;3.85;1.30;;;19.50;71.90;;;;;;10543868;28;20395;-73
2022/05/08 16:55:27;;;;;;;2.65;1.30;;;19.40;71.90;;;;;;10543480;28;20048;-70
2022/05/08 17:00:28;;;;;;;3.53;1.50;;;19.40;72.00;;;;;;10543223;28;20036;-71
2022/05/08 17:05:28;;;;;;;4.15;1.55;;;19.30;72.20;;;;;;10543398;28;20074;-67
2022/05/08 17:10:30;;;;;;;2.92;1.50;;;19.30;72.50;;;;;;10543383;28;20028;-66
2022/05/08 17:15:31;;;;;;;3.08;1.30;;;19.20;72.30;;;;;;10546073;28;20016;-69
2022/05/08 17:20:32;;;;;;;4.43;1.55;;;19.20;72.40;;;;;;10553374;28;20065;-70
2022/05/08 17:25:33;;;;;;;5.32;1.50;;;19.10;72.20;;;;;;10549576;28;20059;-61
2022/05/08 17:30:33;;;;;;;3.80;1.42;;;19.10;72.20;;;;;;10555900;22;20739;-81
2022/05/08 17:36:14;;;;;;;4.90;1.38;;;19.10;72.40;;;;;;10521496;28;20453;-77
2022/05/08 17:42:14;;;;;;;2.75;1.30;;;19.00;72.50;;;;;;10525623;28;20078;-79
2022/05/08 17:48:15;;;;;;;3.55;1.50;;;18.90;72.60;;;;;;10530664;28;20024;-75
2022/05/08 17:54:15;;;;;;;2.42;1.33;;;18.90;72.00;;;;;;10529899;28;20032;-75
2022/05/08 17:59:36;;;;;;;4.95;1.50;;;18.80;72.30;;;;;;10526369;28;20040;-74
2022/05/08 18:09:56;;;;;;;3.90;1.40;;;18.60;72.90;;;;;;10534363;28;20089;-88
2022/05/08 18:14:57;;;;;;;4.43;1.80;;;18.50;72.90;;;;;;10534920;28;20117;-88
2022/05/08 18:20:00;;;;;;;4.10;1.50;;;18.50;72.90;;;;;;10533437;28;20055;-89
2022/05/08 18:25:01;;;;;;;3.70;1.27;;;18.40;73.00;;;;;;10511940;28;20052;-88
2022/05/08 18:30:03;;;;;;;3.35;1.50;;;18.40;73.80;;;;;;10524795;28;20095;-88
2022/05/08 18:35:05;;;;;;;3.03;1.23;;;18.30;73.10;;;;;;10498841;28;20402;-88
2022/05/08 18:40:12;;;;;;;5.47;1.40;;;18.30;73.30;;;;;;10501630;28;20044;-88
2022/05/08 18:45:18;;;;;;;5.25;1.45;;;18.20;73.20;;;;;;10532755;28;20035;-87
2022/05/08 18:50:19;;;;;;;2.53;1.42;;;18.10;73.10;;;;;;10532080;28;20028;-77
2022/05/08 18:55:20;;;;;;;1.95;1.13;;;18.10;73.40;;;;;;10499137;28;20032;-81
2022/05/08 19:00:24;;;;;;;4.68;1.23;;;18.00;73.50;;;;;;10525228;28;20105;-72
2022/05/08 19:06:23;;;;;;;5.00;1.40;;;17.90;72.60;;;;;;10374805;28;20149;-57
2022/05/08 19:11:24;;;;;;;4.68;1.30;;;17.90;73.60;;;;;;10348210;28;20066;-64
2022/05/08 19:16:26;;;;;;;4.35;1.70;;;17.80;73.60;;;;;;10346196;28;20068;-67
2022/05/08 19:21:27;;;;;;;5.28;1.30;;;17.70;73.60;;;;;;10347201;28;20540;-68
2022/05/08 19:26:28;;;;;;;3.35;1.70;;;17.70;73.70;;;;;;10343307;28;20028;-61
2022/05/08 19:42:07;;;;;;;9.20;1.75;;;17.50;73.60;;;;;;10350635;28;20041;-56
2022/05/08 19:47:17;;;;;;;4.65;1.95;;;17.40;73.50;;;;;;10354774;28;20531;-58
2022/05/08 19:52:21;;;;;;;5.72;1.45;;;17.40;73.50;;;;;;10351052;28;20026;-60
2022/05/08 19:57:23;;;;;;;7.28;3.17;;;17.30;73.40;;;;;;10352796;28;20405;-58
2022/05/08 20:02:27;;;;;;;3.78;2.00;;;17.30;73.40;;;;;;10369676;28;20053;-69
2022/05/08 20:07:28;;;;;;;6.45;1.90;;;17.20;73.30;;;;;;10359363;28;20033;-67
2022/05/08 20:12:30;;;;;;;5.93;1.70;;;17.10;73.20;;;;;;10344679;28;20054;-68
2022/05/08 20:17:31;;;;;;;5.90;1.73;;;17.10;73.20;;;;;;10288710;28;20039;-56
2022/05/08 20:22:31;;;;;;;5.47;1.90;;;17.10;73.20;;;;;;10330261;28;20030;-57
2022/05/08 20:27:32;;;;;;;4.45;1.73;;;17.00;73.10;;;;;;10314482;28;20409;-70
2022/05/08 20:32:33;;;;;;;4.10;1.58;;;16.90;73.10;;;;;;10295549;28;20022;-60
2022/05/08 20:37:33;;;;;;;4.20;1.73;;;16.90;73.10;;;;;;10293861;28;20114;-69
2022/05/08 20:42:34;;;;;;;4.68;2.05;;;16.80;73.00;;;;;;10296750;28;20030;-61
2022/05/08 20:47:35;;;;;;;3.42;2.25;;;16.80;73.00;;;;;;10287036;28;20038;-70
2022/05/08 20:52:36;;;;;;;6.07;1.40;;;16.70;72.90;;;;;;10304337;28;20590;-66
2022/05/08 20:57:37;;;;;;;5.85;1.48;;;16.70;72.90;;;;;;10344745;28;20039;-65
2022/05/08 21:02:37;;;;;;;7.10;1.88;;;16.60;72.70;;;;;;10357597;28;20054;-67
2022/05/08 21:07:55;;;;;;;4.85;1.67;;;16.60;73.30;;;;;;10326937;28;20024;-57
2022/05/08 21:12:56;;;;;;;2.70;1.23;;;16.50;72.60;;;;;;10300416;28;20065;-63
2022/05/08 21:17:58;;;;;;;6.40;1.45;;;16.50;72.60;;;;;;10315877;28;20039;-62
2022/05/08 21:22:58;;;;;;;5.05;1.60;;;16.40;72.50;;;;;;10313632;28;20272;-62
2022/05/08 21:28:00;;;;;;;5.70;1.73;;;16.40;72.50;;;;;;10312323;28;20237;-70
2022/05/08 21:33:00;;;;;;;6.00;1.48;;;16.30;72.30;;;;;;10310370;28;20518;-57
2022/05/08 21:38:01;;;;;;;5.28;1.80;;;16.20;72.20;;;;;;10316376;28;20030;-57
2022/05/08 21:43:02;;;;;;;6.20;1.48;;;16.20;72.20;;;;;;10315601;28;20091;-60
2022/05/08 21:48:03;;;;;;;3.45;1.58;;;16.20;72.20;;;;;;10349063;28;20026;-56
2022/05/08 21:53:04;;;;;;;5.15;1.60;;;16.10;72.10;;;;;;10316012;28;20034;-57
2022/05/08 21:58:05;;;;;;;3.92;1.15;;;16.10;72.10;;;;;;10318776;28;20034;-69
2022/05/08 22:03:07;;;;;;;2.47;1.27;;;16.00;72.10;;;;;;10300850;28;20058;-68
2022/05/08 22:08:07;;;;;;;3.28;1.40;;;16.00;72.10;;;;;;10312734;28;20065;-58
2022/05/08 22:13:08;;;;;;;4.68;1.42;;;15.90;72.00;;;;;;10312358;28;20116;-57
2022/05/08 22:23:28;;;;;;;6.72;1.63;;;15.90;72.00;;;;;;10311179;28;20096;-64
2022/05/08 22:28:29;;;;;;;3.08;1.40;;;15.80;72.00;;;;;;10326134;28;20110;-65
2022/05/08 22:33:29;;;;;;;4.55;1.60;;;15.80;72.00;;;;;;10319970;28;20023;-64
2022/05/08 22:38:30;;;;;;;4.78;1.60;;;15.70;72.00;;;;;;10310763;28;20387;-67
2022/05/08 22:43:31;;;;;;;4.93;1.20;;;15.70;72.00;;;;;;10298141;28;20509;-65
2022/05/08 22:48:32;;;;;;;4.43;1.27;;;15.70;72.30;;;;;;10318539;28;20022;-64
2022/05/08 22:53:32;;;;;;;3.22;1.42;;;15.60;72.10;;;;;;10326176;28;20033;-57
2022/05/08 22:58:33;;;;;;;5.45;1.50;;;15.60;72.10;;;;;;10338466;28;20505;-57
2022/05/08 23:03:34;;;;;;;4.22;1.63;;;15.50;72.10;;;;;;10318331;28;20104;-68
2022/05/08 23:08:34;;;;;;;5.20;1.40;;;15.50;72.10;;;;;;10318266;28;20027;-57
2022/05/08 23:13:35;;;;;;;5.15;1.40;;;15.50;72.10;;;;;;10317908;28;20463;-71
2022/05/08 23:18:36;;;;;;;6.03;1.77;;;15.40;72.10;;;;;;10323840;28;20534;-56
2022/05/08 23:23:40;;;;;;;5.43;1.75;;;15.40;72.10;;;;;;10320625;28;20066;-57
2022/05/08 23:28:41;;;;;;;3.70;1.35;;;15.30;72.10;;;;;;10325009;28;20497;-62
2022/05/08 23:33:42;;;;;;;4.70;1.70;;;15.30;72.20;;;;;;10323919;28;20026;-63
2022/05/08 23:38:43;;;;;;;6.28;1.70;;;15.30;72.20;;;;;;10319196;28;20030;-67
2022/05/08 23:43:43;;;;;;;5.28;1.65;;;15.20;72.30;;;;;;10321366;28;20613;-57
2022/05/08 23:48:44;;;;;;;2.95;1.27;;;15.20;72.30;;;;;;10317623;28;20121;-57
2022/05/08 23:53:46;;;;;;;4.20;1.40;;;15.20;72.30;;;;;;10344523;28;20450;-57
2022/05/08 23:58:46;;;;;;;5.38;1.80;;;15.10;72.30;;;;;;10344877;28;20030;-57
